sensor_id;sensor_type;location;lat;lon;timestamp;pressure;altitude;pressure_sealevel;temperature;humidity
13013;BME280;22580;57.670;12.006;2022-10-17T00:01:15;101550.28;;;17.89;90.98
13013;BME280;22580;57.670;12.006;2022-10-17T00:03:43;101468.97;;;17.50;90.53
13013;BME280;22580;57.670;12.006;2022-10-17T00:06:12;101550.28;;;17.89;90.27
13013;BME280;22580;57.670;12.006;2022-10-17T00:08:41;101572.00;;;18.08;89.74
13013;BME280;22580;57.670;12.006;2022-10-17T00:11:14;101532.44;;;17.56;89.39
13013;BME280;22580;57.670;12.006;2022-10-17T00:13:42;101571.25;;;17.66;89.41
13013;BME280;22580;57.670;12.006;2022-10-17T00:16:11;101550.28;;;17.89;87.85
13013;BME280;22580;57.670;12.006;2022-10-17T00:18:40;101538.81;;;18.06;87.42
13013;BME280;22580;57.670;12.006;2022-10-17T00:21:20;101565.31;;;18.12;88.18
13013;BME280;22580;57.670;12.006;2022-10-17T00:23:51;101541.06;;;18.01;87.75
13013;BME280;22580;57.670;12.006;2022-10-17T00:26:20;101563.09;;;17.87;87.71
13013;BME280;22580;57.670;12.006;2022-10-17T00:28:47;101577.16;;;17.81;87.74
13013;BME280;22580;57.670;12.006;2022-10-17T00:31:18;101579.19;;;17.88;87.10
13013;BME280;22580;57.670;12.006;2022-10-17T00:33:48;101532.66;;;17.94;86.24
13013;BME280;22580;57.670;12.006;2022-10-17T00:36:20;101579.00;;;18.30;85.90
13013;BME280;22580;57.670;12.006;2022-10-17T00:38:50;101577.31;;;17.89;88.18
13013;BME280;22580;57.670;12.006;2022-10-17T00:41:20;101580.78;;;17.70;87.83
13013;BME280;22580;57.670;12.006;2022-10-17T00:43:52;101539.97;;;17.73;87.88
13013;BME280;22580;57.670;12.006;2022-10-17T00:46:25;101554.47;;;17.21;90.46
13013;BME280;22580;57.670;12.006;2022-10-17T00:48:55;101570.69;;;17.72;89.74
13013;BME280;22580;57.670;12.006;2022-10-17T00:51:27;101567.69;;;17.96;88.62
13013;BME280;22580;57.670;12.006;2022-10-17T00:53:58;101574.81;;;17.66;90.60
13013;BME280;22580;57.670;12.006;2022-10-17T00:56:28;101607.72;;;18.02;89.85
13013;BME280;22580;57.670;12.006;2022-10-17T00:58:56;101602.34;;;18.12;89.64
13013;BME280;22580;57.670;12.006;2022-10-17T01:01:23;101584.97;;;18.74;86.70
13013;BME280;22580;57.670;12.006;2022-10-17T01:03:51;101604.78;;;18.24;89.09
13013;BME280;22580;57.670;12.006;2022-10-17T01:06:20;101603.28;;;17.71;92.79
13013;BME280;22580;57.670;12.006;2022-10-17T01:08:49;101586.72;;;17.85;92.84
13013;BME280;22580;57.670;12.006;2022-10-17T01:11:26;101601.31;;;18.03;92.29
13013;BME280;22580;57.670;12.006;2022-10-17T01:14:02;101600.03;;;17.77;93.08
13013;BME280;22580;57.670;12.006;2022-10-17T01:16:41;101616.13;;;18.58;90.48
13013;BME280;22580;57.670;12.006;2022-10-17T01:19:43;101614.94;;;17.92;93.25
13013;BME280;22580;57.670;12.006;2022-10-17T01:22:29;101575.22;;;17.92;91.73
13013;BME280;22580;57.670;12.006;2022-10-17T01:25:23;101609.81;;;18.48;90.34
13013;BME280;22580;57.670;12.006;2022-10-17T01:28:17;101619.03;;;17.86;92.38
13013;BME280;22580;57.670;12.006;2022-10-17T01:31:03;101624.56;;;17.85;93.10
13013;BME280;22580;57.670;12.006;2022-10-17T01:33:47;101621.94;;;17.53;94.59
13013;BME280;22580;57.670;12.006;2022-10-17T01:36:27;101624.47;;;17.24;96.09
13013;BME280;22580;57.670;12.006;2022-10-17T01:39:01;101623.66;;;17.12;96.70
13013;BME280;22580;57.670;12.006;2022-10-17T01:41:39;101630.25;;;17.19;96.23
13013;BME280;22580;57.670;12.006;2022-10-17T01:44:11;101607.28;;;17.34;95.19
13013;BME280;22580;57.670;12.006;2022-10-17T01:46:42;101626.16;;;17.25;95.65
13013;BME280;22580;57.670;12.006;2022-10-17T01:49:15;101609.34;;;17.42;95.02
13013;BME280;22580;57.670;12.006;2022-10-17T01:51:50;101602.16;;;17.11;95.36
13013;BME280;22580;57.670;12.006;2022-10-17T01:54:22;101575.97;;;16.90;94.55
13013;BME280;22580;57.670;12.006;2022-10-17T01:56:56;101638.56;;;17.27;93.97
13013;BME280;22580;57.670;12.006;2022-10-17T01:59:28;101631.88;;;17.52;92.87
13013;BME280;22580;57.670;12.006;2022-10-17T02:02:00;101635.91;;;17.16;94.19
13013;BME280;22580;57.670;12.006;2022-10-17T02:04:28;101641.44;;;17.56;92.86
13013;BME280;22580;57.670;12.006;2022-10-17T02:06:55;101638.31;;;17.72;91.76
13013;BME280;22580;57.670;12.006;2022-10-17T02:09:25;101597.56;;;17.22;92.83
13013;BME280;22580;57.670;12.006;2022-10-17T02:12:10;101647.41;;;17.71;91.62
13013;BME280;22580;57.670;12.006;2022-10-17T02:14:55;101623.22;;;17.69;91.13
13013;BME280;22580;57.670;12.006;2022-10-17T02:17:37;101653.72;;;17.60;92.50
13013;BME280;22580;57.670;12.006;2022-10-17T02:20:16;101644.16;;;17.56;92.17
13013;BME280;22580;57.670;12.006;2022-10-17T02:22:53;101644.94;;;17.26;92.94
13013;BME280;22580;57.670;12.006;2022-10-17T02:25:28;101664.50;;;17.19;93.25
13013;BME280;22580;57.670;12.006;2022-10-17T02:28:03;101667.75;;;17.54;92.71
13013;BME280;22580;57.670;12.006;2022-10-17T02:30:36;101676.75;;;17.76;92.17
13013;BME280;22580;57.670;12.006;2022-10-17T02:33:10;101666.94;;;17.75;91.95
13013;BME280;22580;57.670;12.006;2022-10-17T02:35:43;101673.25;;;17.85;91.60
13013;BME280;22580;57.670;12.006;2022-10-17T02:38:15;101638.59;;;17.58;91.50
13013;BME280;22580;57.670;12.006;2022-10-17T02:40:49;101677.16;;;17.39;93.05
13013;BME280;22580;57.670;12.006;2022-10-17T02:43:18;101622.38;;;16.95;93.50
13013;BME280;22580;57.670;12.006;2022-10-17T02:45:45;101673.81;;;17.47;93.14
13013;BME280;22580;57.670;12.006;2022-10-17T02:48:18;101673.75;;;17.37;93.28
13013;BME280;22580;57.670;12.006;2022-10-17T02:50:56;101680.44;;;17.33;93.31
13013;BME280;22580;57.670;12.006;2022-10-17T02:53:29;101648.25;;;17.30;93.01
13013;BME280;22580;57.670;12.006;2022-10-17T02:56:02;101684.41;;;17.18;93.88
13013;BME280;22580;57.670;12.006;2022-10-17T02:58:32;101697.66;;;16.55;96.12
13013;BME280;22580;57.670;12.006;2022-10-17T03:01:01;101681.47;;;16.66;95.93
13013;BME280;22580;57.670;12.006;2022-10-17T03:03:33;101700.38;;;16.78;96.28
13013;BME280;22580;57.670;12.006;2022-10-17T03:06:00;101684.78;;;16.59;96.38
13013;BME280;22580;57.670;12.006;2022-10-17T03:08:27;101699.88;;;16.50;97.44
13013;BME280;22580;57.670;12.006;2022-10-17T03:10:54;101708.09;;;16.82;96.37
13013;BME280;22580;57.670;12.006;2022-10-17T03:13:28;101671.94;;;16.40;97.06
13013;BME280;22580;57.670;12.006;2022-10-17T03:15:55;101711.78;;;16.70;97.15
13013;BME280;22580;57.670;12.006;2022-10-17T03:18:23;101713.03;;;16.44;98.50
13013;BME280;22580;57.670;12.006;2022-10-17T03:20:51;101687.28;;;16.17;98.49
13013;BME280;22580;57.670;12.006;2022-10-17T03:23:18;101689.72;;;16.65;97.14
13013;BME280;22580;57.670;12.006;2022-10-17T03:25:46;101711.53;;;16.62;97.27
13013;BME280;22580;57.670;12.006;2022-10-17T03:28:13;101695.09;;;16.54;97.17
13013;BME280;22580;57.670;12.006;2022-10-17T03:30:44;101739.13;;;16.54;97.87
13013;BME280;22580;57.670;12.006;2022-10-17T03:33:11;101729.22;;;16.66;97.24
13013;BME280;22580;57.670;12.006;2022-10-17T03:35:39;101736.81;;;16.72;97.42
13013;BME280;22580;57.670;12.006;2022-10-17T03:38:07;101732.25;;;16.50;98.43
13013;BME280;22580;57.670;12.006;2022-10-17T03:40:36;101726.00;;;16.94;96.62
13013;BME280;22580;57.670;12.006;2022-10-17T03:43:03;101726.75;;;16.85;96.91
13013;BME280;22580;57.670;12.006;2022-10-17T03:45:30;101711.38;;;16.97;96.27
13013;BME280;22580;57.670;12.006;2022-10-17T03:48:00;101709.56;;;16.75;96.95
13013;BME280;22580;57.670;12.006;2022-10-17T03:50:29;101723.66;;;16.90;96.26
13013;BME280;22580;57.670;12.006;2022-10-17T03:52:58;101698.25;;;16.92;95.59
13013;BME280;22580;57.670;12.006;2022-10-17T03:55:28;101719.16;;;16.12;98.97
13013;BME280;22580;57.670;12.006;2022-10-17T03:57:55;101699.88;;;16.61;96.85
13013;BME280;22580;57.670;12.006;2022-10-17T04:00:26;101640.53;;;15.94;98.78
13013;BME280;22580;57.670;12.006;2022-10-17T04:02:54;101711.56;;;16.28;99.04
13013;BME280;22580;57.670;12.006;2022-10-17T04:05:21;101730.41;;;16.06;100.00
13013;BME280;22580;57.670;12.006;2022-10-17T04:07:48;101732.97;;;15.96;100.00
13013;BME280;22580;57.670;12.006;2022-10-17T04:10:15;101736.38;;;15.87;100.00
13013;BME280;22580;57.670;12.006;2022-10-17T04:12:44;101745.88;;;16.15;100.00
13013;BME280;22580;57.670;12.006;2022-10-17T04:15:12;101752.75;;;16.08;100.00
13013;BME280;22580;57.670;12.006;2022-10-17T04:17:40;101737.28;;;16.55;99.56
13013;BME280;22580;57.670;12.006;2022-10-17T04:20:08;101746.88;;;16.70;98.70
13013;BME280;22580;57.670;12.006;2022-10-17T04:22:39;101721.00;;;16.67;98.15
13013;BME280;22580;57.670;12.006;2022-10-17T04:25:09;101741.84;;;16.88;97.28
13013;BME280;22580;57.670;12.006;2022-10-17T04:27:36;101744.75;;;17.07;96.52
13013;BME280;22580;57.670;12.006;2022-10-17T04:30:06;101723.28;;;16.94;96.49
13013;BME280;22580;57.670;12.006;2022-10-17T04:32:37;101692.56;;;16.41;97.53
13013;BME280;22580;57.670;12.006;2022-10-17T04:35:05;101749.47;;;16.71;97.84
13013;BME280;22580;57.670;12.006;2022-10-17T04:37:32;101749.69;;;16.80;97.38
13013;BME280;22580;57.670;12.006;2022-10-17T04:39:59;101752.25;;;16.92;96.60
13013;BME280;22580;57.670;12.006;2022-10-17T04:42:29;101713.78;;;16.46;97.02
13013;BME280;22580;57.670;12.006;2022-10-17T04:44:56;101727.50;;;16.20;98.53
13013;BME280;22580;57.670;12.006;2022-10-17T04:47:27;101761.22;;;16.59;98.27
13013;BME280;22580;57.670;12.006;2022-10-17T04:49:54;101744.19;;;16.36;99.08
13013;BME280;22580;57.670;12.006;2022-10-17T04:52:23;101766.88;;;16.23;100.00
13013;BME280;22580;57.670;12.006;2022-10-17T04:54:52;101762.59;;;16.31;99.78
13013;BME280;22580;57.670;12.006;2022-10-17T04:57:19;101769.94;;;16.63;99.08
13013;BME280;22580;57.670;12.006;2022-10-17T04:59:47;101774.75;;;16.82;98.78
13013;BME280;22580;57.670;12.006;2022-10-17T05:02:14;101780.88;;;16.84;98.52
13013;BME280;22580;57.670;12.006;2022-10-17T05:04:43;101784.06;;;16.78;98.78
13013;BME280;22580;57.670;12.006;2022-10-17T05:07:10;101722.47;;;16.27;99.09
13013;BME280;22580;57.670;12.006;2022-10-17T05:09:39;101790.06;;;16.59;99.34
13013;BME280;22580;57.670;12.006;2022-10-17T05:12:08;101788.97;;;16.73;98.61
13013;BME280;22580;57.670;12.006;2022-10-17T05:14:35;101795.59;;;16.80;98.59
13013;BME280;22580;57.670;12.006;2022-10-17T05:17:02;101730.94;;;16.33;98.78
13013;BME280;22580;57.670;12.006;2022-10-17T05:19:29;101771.88;;;16.50;98.73
13013;BME280;22580;57.670;12.006;2022-10-17T05:21:58;101775.84;;;16.46;99.14
13013;BME280;22580;57.670;12.006;2022-10-17T05:24:27;101735.25;;;15.79;100.00
13013;BME280;22580;57.670;12.006;2022-10-17T05:27:03;101753.56;;;15.97;100.00
13013;BME280;22580;57.670;12.006;2022-10-17T05:29:37;101795.69;;;16.33;99.93
13013;BME280;22580;57.670;12.006;2022-10-17T05:32:06;101787.72;;;16.21;100.00
13013;BME280;22580;57.670;12.006;2022-10-17T05:34:37;101760.97;;;16.18;99.94
13013;BME280;22580;57.670;12.006;2022-10-17T05:37:10;101733.72;;;15.98;100.00
13013;BME280;22580;57.670;12.006;2022-10-17T05:39:39;101707.91;;;15.72;100.00
13013;BME280;22580;57.670;12.006;2022-10-17T05:42:07;101748.56;;;16.04;100.00
13013;BME280;22580;57.670;12.006;2022-10-17T05:44:36;101761.56;;;15.40;100.00
13013;BME280;22580;57.670;12.006;2022-10-17T05:47:10;101794.13;;;15.96;100.00
13013;BME280;22580;57.670;12.006;2022-10-17T05:49:43;101794.16;;;16.07;100.00
13013;BME280;22580;57.670;12.006;2022-10-17T05:52:26;101743.63;;;15.52;100.00
13013;BME280;22580;57.670;12.006;2022-10-17T05:54:55;101791.25;;;15.75;100.00
13013;BME280;22580;57.670;12.006;2022-10-17T05:57:25;101802.34;;;16.74;98.78
13013;BME280;22580;57.670;12.006;2022-10-17T05:59:52;101762.44;;;16.55;98.69
13013;BME280;22580;57.670;12.006;2022-10-17T06:02:20;101774.63;;;16.83;97.56
13013;BME280;22580;57.670;12.006;2022-10-17T06:04:47;101802.56;;;16.37;99.47
13013;BME280;22580;57.670;12.006;2022-10-17T06:07:16;101721.16;;;15.75;100.00
13013;BME280;22580;57.670;12.006;2022-10-17T06:09:45;101805.41;;;15.90;100.00
13013;BME280;22580;57.670;12.006;2022-10-17T06:12:20;101802.69;;;16.58;99.72
13013;BME280;22580;57.670;12.006;2022-10-17T06:14:49;101800.63;;;16.84;98.89
13013;BME280;22580;57.670;12.006;2022-10-17T06:17:16;101771.88;;;16.61;98.85
13013;BME280;22580;57.670;12.006;2022-10-17T06:19:46;101795.38;;;16.71;98.88
13013;BME280;22580;57.670;12.006;2022-10-17T06:22:13;101801.75;;;16.82;98.49
13013;BME280;22580;57.670;12.006;2022-10-17T06:24:40;101763.06;;;16.25;99.95
13013;BME280;22580;57.670;12.006;2022-10-17T06:27:09;101816.44;;;16.55;99.87
13013;BME280;22580;57.670;12.006;2022-10-17T06:29:36;101731.47;;;15.22;100.00
13013;BME280;22580;57.670;12.006;2022-10-17T06:32:08;101806.34;;;16.24;100.00
13013;BME280;22580;57.670;12.006;2022-10-17T06:34:39;101803.78;;;16.22;100.00
13013;BME280;22580;57.670;12.006;2022-10-17T06:37:06;101851.97;;;15.92;100.00
13013;BME280;22580;57.670;12.006;2022-10-17T06:39:40;101794.09;;;16.53;100.00
13013;BME280;22580;57.670;12.006;2022-10-17T06:42:09;101843.22;;;16.81;100.00
13013;BME280;22580;57.670;12.006;2022-10-17T06:44:36;101842.25;;;17.15;100.00
13013;BME280;22580;57.670;12.006;2022-10-17T06:47:05;101837.25;;;17.43;100.00
13013;BME280;22580;57.670;12.006;2022-10-17T06:49:32;101845.06;;;16.80;100.00
13013;BME280;22580;57.670;12.006;2022-10-17T06:51:59;101799.75;;;17.17;100.00
13013;BME280;22580;57.670;12.006;2022-10-17T06:54:29;101849.63;;;17.56;99.91
13013;BME280;22580;57.670;12.006;2022-10-17T06:57:01;101834.66;;;17.52;100.00
13013;BME280;22580;57.670;12.006;2022-10-17T06:59:35;101841.50;;;17.67;99.40
13013;BME280;22580;57.670;12.006;2022-10-17T07:02:08;101848.63;;;17.68;98.13
13013;BME280;22580;57.670;12.006;2022-10-17T07:04:35;101807.63;;;16.87;100.00
13013;BME280;22580;57.670;12.006;2022-10-17T07:07:04;101844.69;;;18.05;98.62
13013;BME280;22580;57.670;12.006;2022-10-17T07:09:40;101848.00;;;18.08;97.02
13013;BME280;22580;57.670;12.006;2022-10-17T07:12:07;101845.06;;;17.57;96.97
13013;BME280;22580;57.670;12.006;2022-10-17T07:14:44;101799.63;;;17.19;97.34
13013;BME280;22580;57.670;12.006;2022-10-17T07:17:12;101834.59;;;17.31;97.51
13013;BME280;22580;57.670;12.006;2022-10-17T07:19:39;101865.88;;;17.34;98.16
13013;BME280;22580;57.670;12.006;2022-10-17T07:22:08;101854.78;;;17.16;98.67
13013;BME280;22580;57.670;12.006;2022-10-17T07:24:39;101879.81;;;17.29;99.04
13013;BME280;22580;57.670;12.006;2022-10-17T07:27:08;101881.47;;;17.42;98.49
13013;BME280;22580;57.670;12.006;2022-10-17T07:29:39;101870.28;;;16.57;100.00
13013;BME280;22580;57.670;12.006;2022-10-17T07:32:06;101858.09;;;17.20;99.55
13013;BME280;22580;57.670;12.006;2022-10-17T07:34:34;101881.00;;;17.36;100.00
13013;BME280;22580;57.670;12.006;2022-10-17T07:37:02;101890.94;;;17.36;100.00
13013;BME280;22580;57.670;12.006;2022-10-17T07:39:31;101893.19;;;17.31;99.72
13013;BME280;22580;57.670;12.006;2022-10-17T07:42:00;101850.72;;;16.77;100.00
13013;BME280;22580;57.670;12.006;2022-10-17T07:44:27;101865.81;;;17.13;99.73
13013;BME280;22580;57.670;12.006;2022-10-17T07:46:56;101882.06;;;17.56;98.76
13013;BME280;22580;57.670;12.006;2022-10-17T07:49:23;101879.13;;;17.59;98.63
13013;BME280;22580;57.670;12.006;2022-10-17T07:51:50;101898.13;;;17.91;97.78
13013;BME280;22580;57.670;12.006;2022-10-17T07:54:20;101859.47;;;17.68;97.62
13013;BME280;22580;57.670;12.006;2022-10-17T07:56:48;101902.22;;;17.52;99.33
13013;BME280;22580;57.670;12.006;2022-10-17T07:59:17;101822.50;;;16.92;99.69
13013;BME280;22580;57.670;12.006;2022-10-17T08:01:45;101900.50;;;17.51;99.71
13013;BME280;22580;57.670;12.006;2022-10-17T08:04:16;101887.78;;;17.31;100.00
13013;BME280;22580;57.670;12.006;2022-10-17T08:06:43;101890.81;;;17.37;100.00
13013;BME280;22580;57.670;12.006;2022-10-17T08:09:13;101861.16;;;17.04;100.00
13013;BME280;22580;57.670;12.006;2022-10-17T08:11:40;101865.31;;;17.30;100.00
13013;BME280;22580;57.670;12.006;2022-10-17T08:14:08;101808.75;;;16.84;100.00
13013;BME280;22580;57.670;12.006;2022-10-17T08:16:38;101884.53;;;17.59;100.00
13013;BME280;22580;57.670;12.006;2022-10-17T08:19:08;101845.69;;;17.60;100.00
13013;BME280;22580;57.670;12.006;2022-10-17T08:21:41;101879.81;;;17.84;100.00
13013;BME280;22580;57.670;12.006;2022-10-17T08:24:09;101875.91;;;17.77;100.00
13013;BME280;22580;57.670;12.006;2022-10-17T08:26:36;101870.13;;;17.81;100.00
13013;BME280;22580;57.670;12.006;2022-10-17T08:29:03;101877.19;;;17.93;100.00
13013;BME280;22580;57.670;12.006;2022-10-17T08:31:31;101850.88;;;17.95;100.00
13013;BME280;22580;57.670;12.006;2022-10-17T08:33:58;101869.75;;;18.48;100.00
13013;BME280;22580;57.670;12.006;2022-10-17T08:36:25;101878.94;;;18.57;100.00
13013;BME280;22580;57.670;12.006;2022-10-17T08:38:55;101869.50;;;18.51;100.00
13013;BME280;22580;57.670;12.006;2022-10-17T08:41:35;101852.66;;;18.27;100.00
13013;BME280;22580;57.670;12.006;2022-10-17T08:44:13;101866.91;;;17.87;100.00
13013;BME280;22580;57.670;12.006;2022-10-17T08:46:47;101834.78;;;17.51;100.00
13013;BME280;22580;57.670;12.006;2022-10-17T08:49:22;101867.09;;;17.95;100.00
13013;BME280;22580;57.670;12.006;2022-10-17T08:51:54;101872.22;;;17.78;100.00
13013;BME280;22580;57.670;12.006;2022-10-17T08:54:34;101867.88;;;17.86;100.00
13013;BME280;22580;57.670;12.006;2022-10-17T08:57:10;101858.44;;;17.81;100.00
13013;BME280;22580;57.670;12.006;2022-10-17T08:59:37;101863.75;;;17.71;100.00
13013;BME280;22580;57.670;12.006;2022-10-17T09:02:23;101874.03;;;17.88;100.00
13013;BME280;22580;57.670;12.006;2022-10-17T09:05:13;101871.16;;;18.01;100.00
13013;BME280;22580;57.670;12.006;2022-10-17T09:07:48;101863.28;;;18.81;98.41
13013;BME280;22580;57.670;12.006;2022-10-17T09:10:27;101869.56;;;18.40;99.07
13013;BME280;22580;57.670;12.006;2022-10-17T09:13:06;101871.03;;;18.65;98.61
13013;BME280;22580;57.670;12.006;2022-10-17T09:15:44;101866.38;;;18.56;98.73
13013;BME280;22580;57.670;12.006;2022-10-17T09:18:16;101865.59;;;18.23;100.00
13013;BME280;22580;57.670;12.006;2022-10-17T09:20:53;101820.81;;;18.10;100.00
13013;BME280;22580;57.670;12.006;2022-10-17T09:23:24;101854.97;;;18.52;99.45
13013;BME280;22580;57.670;12.006;2022-10-17T09:25:57;101849.88;;;18.59;99.11
13013;BME280;22580;57.670;12.006;2022-10-17T09:28:27;101850.22;;;18.24;100.00
13013;BME280;22580;57.670;12.006;2022-10-17T09:31:01;101857.22;;;18.26;100.00
13013;BME280;22580;57.670;12.006;2022-10-17T09:33:33;101842.91;;;18.15;100.00
13013;BME280;22580;57.670;12.006;2022-10-17T09:36:04;101807.34;;;17.66;100.00
13013;BME280;22580;57.670;12.006;2022-10-17T09:38:38;101848.06;;;18.18;100.00
13013;BME280;22580;57.670;12.006;2022-10-17T09:41:15;101844.78;;;18.45;100.00
13013;BME280;22580;57.670;12.006;2022-10-17T09:43:43;101844.22;;;18.62;100.00
13013;BME280;22580;57.670;12.006;2022-10-17T09:46:16;101822.88;;;18.69;100.00
13013;BME280;22580;57.670;12.006;2022-10-17T09:48:48;101827.06;;;18.82;100.00
13013;BME280;22580;57.670;12.006;2022-10-17T09:51:17;101830.13;;;18.98;100.00
13013;BME280;22580;57.670;12.006;2022-10-17T09:53:47;101786.16;;;18.85;100.00
13013;BME280;22580;57.670;12.006;2022-10-17T09:56:19;101802.81;;;18.81;99.20
13013;BME280;22580;57.670;12.006;2022-10-17T09:58:48;101805.59;;;19.10;98.70
13013;BME280;22580;57.670;12.006;2022-10-17T10:01:20;101797.78;;;18.66;99.67
13013;BME280;22580;57.670;12.006;2022-10-17T10:03:49;101787.13;;;18.54;99.56
13013;BME280;22580;57.670;12.006;2022-10-17T10:06:34;101787.25;;;18.73;99.39
13013;BME280;22580;57.670;12.006;2022-10-17T10:09:02;101787.09;;;18.44;100.00
13013;BME280;22580;57.670;12.006;2022-10-17T10:11:46;101780.72;;;18.55;100.00
13013;BME280;22580;57.670;12.006;2022-10-17T10:14:20;101768.72;;;18.48;100.00
13013;BME280;22580;57.670;12.006;2022-10-17T10:16:48;101754.31;;;18.47;100.00
13013;BME280;22580;57.670;12.006;2022-10-17T10:19:27;101735.38;;;18.17;100.00
13013;BME280;22580;57.670;12.006;2022-10-17T10:21:56;101767.31;;;18.53;100.00
13013;BME280;22580;57.670;12.006;2022-10-17T10:24:24;101765.28;;;18.46;100.00
13013;BME280;22580;57.670;12.006;2022-10-17T10:26:54;101787.28;;;18.83;100.00
13013;BME280;22580;57.670;12.006;2022-10-17T10:29:26;101777.88;;;18.56;100.00
13013;BME280;22580;57.670;12.006;2022-10-17T10:32:06;101779.16;;;18.52;100.00
13013;BME280;22580;57.670;12.006;2022-10-17T10:34:35;101779.00;;;18.54;100.00
13013;BME280;22580;57.670;12.006;2022-10-17T10:37:05;101759.56;;;19.29;100.00
13013;BME280;22580;57.670;12.006;2022-10-17T10:39:45;101758.56;;;19.30;99.94
13013;BME280;22580;57.670;12.006;2022-10-17T10:42:23;101758.59;;;19.40;99.46
13013;BME280;22580;57.670;12.006;2022-10-17T10:44:51;101752.63;;;19.55;99.34
13013;BME280;22580;57.670;12.006;2022-10-17T10:47:22;101708.63;;;19.13;99.48
13013;BME280;22580;57.670;12.006;2022-10-17T10:49:52;101752.91;;;19.52;99.06
13013;BME280;22580;57.670;12.006;2022-10-17T10:52:31;101749.06;;;19.55;98.75
13013;BME280;22580;57.670;12.006;2022-10-17T10:55:23;101751.50;;;19.58;98.43
13013;BME280;22580;57.670;12.006;2022-10-17T10:57:57;101738.88;;;19.28;98.99
13013;BME280;22580;57.670;12.006;2022-10-17T11:00:28;101756.47;;;19.82;100.00
13013;BME280;22580;57.670;12.006;2022-10-17T11:03:03;101750.22;;;20.28;98.52
13013;BME280;22580;57.670;12.006;2022-10-17T11:05:40;101744.56;;;20.02;96.86
13013;BME280;22580;57.670;12.006;2022-10-17T11:08:22;101745.56;;;20.01;96.41
13013;BME280;22580;57.670;12.006;2022-10-17T11:11:10;101745.84;;;20.08;97.71
13013;BME280;22580;57.670;12.006;2022-10-17T11:13:52;101729.25;;;20.11;97.53
13013;BME280;22580;57.670;12.006;2022-10-17T11:16:30;101695.53;;;19.67;96.30
13013;BME280;22580;57.670;12.006;2022-10-17T11:19:06;101687.50;;;19.84;96.20
13013;BME280;22580;57.670;12.006;2022-10-17T11:21:44;101708.22;;;19.76;95.62
13013;BME280;22580;57.670;12.006;2022-10-17T11:24:23;101708.38;;;19.64;95.64
13013;BME280;22580;57.670;12.006;2022-10-17T11:26:55;101679.53;;;19.35;96.43
13013;BME280;22580;57.670;12.006;2022-10-17T11:29:28;101692.66;;;19.68;96.07
13013;BME280;22580;57.670;12.006;2022-10-17T11:32:04;101682.28;;;20.01;96.68
13013;BME280;22580;57.670;12.006;2022-10-17T11:34:43;101685.84;;;20.48;96.17
13013;BME280;22580;57.670;12.006;2022-10-17T11:37:20;101679.47;;;20.67;95.41
13013;BME280;22580;57.670;12.006;2022-10-17T11:39:52;101659.19;;;20.61;93.84
13013;BME280;22580;57.670;12.006;2022-10-17T11:42:26;101650.94;;;20.53;92.96
13013;BME280;22580;57.670;12.006;2022-10-17T11:44:59;101663.72;;;20.43;92.01
13013;BME280;22580;57.670;12.006;2022-10-17T11:47:35;101663.09;;;20.12;93.16
13013;BME280;22580;57.670;12.006;2022-10-17T11:50:10;101641.25;;;19.76;93.63
13013;BME280;22580;57.670;12.006;2022-10-17T11:52:45;101637.38;;;19.79;94.01
13013;BME280;22580;57.670;12.006;2022-10-17T11:55:18;101588.63;;;19.30;94.10
13013;BME280;22580;57.670;12.006;2022-10-17T12:00:49;101613.81;;;19.79;94.24
13013;BME280;22580;57.670;12.006;2022-10-17T12:03:31;101635.81;;;19.76;94.79
13013;BME280;22580;57.670;12.006;2022-10-17T12:06:10;101601.88;;;19.62;94.28
13013;BME280;22580;57.670;12.006;2022-10-17T12:08:45;101619.03;;;19.53;95.07
13013;BME280;22580;57.670;12.006;2022-10-17T12:11:29;101602.75;;;19.24;95.14
13013;BME280;22580;57.670;12.006;2022-10-17T12:14:00;101581.63;;;19.38;95.15
13013;BME280;22580;57.670;12.006;2022-10-17T12:16:42;101586.59;;;19.61;95.03
13013;BME280;22580;57.670;12.006;2022-10-17T12:19:23;101535.69;;;19.36;95.31
13013;BME280;22580;57.670;12.006;2022-10-17T12:22:01;101577.38;;;19.91;95.25
13013;BME280;22580;57.670;12.006;2022-10-17T12:24:43;101568.09;;;20.12;94.99
13013;BME280;22580;57.670;12.006;2022-10-17T12:30:06;101589.16;;;20.27;94.63
13013;BME280;22580;57.670;12.006;2022-10-17T12:33:00;101578.00;;;20.30;93.54
13013;BME280;22580;57.670;12.006;2022-10-17T12:35:28;101575.50;;;20.47;95.32
13013;BME280;22580;57.670;12.006;2022-10-17T12:40:54;101560.53;;;20.60;94.11
13013;BME280;22580;57.670;12.006;2022-10-17T12:43:54;101544.94;;;20.63;94.91
13013;BME280;22580;57.670;12.006;2022-10-17T12:46:46;101544.09;;;20.62;96.30
13013;BME280;22580;57.670;12.006;2022-10-17T12:49:49;101507.06;;;20.61;95.30
13013;BME280;22580;57.670;12.006;2022-10-17T12:52:22;101501.00;;;20.67;96.25
13013;BME280;22580;57.670;12.006;2022-10-17T12:54:56;101510.56;;;20.71;95.43
13013;BME280;22580;57.670;12.006;2022-10-17T12:57:32;101481.75;;;20.43;95.52
13013;BME280;22580;57.670;12.006;2022-10-17T13:00:03;101482.78;;;20.42;96.71
13013;BME280;22580;57.670;12.006;2022-10-17T13:02:34;101472.94;;;20.13;95.02
13013;BME280;22580;57.670;12.006;2022-10-17T13:05:11;101442.03;;;19.96;94.89
13013;BME280;22580;57.670;12.006;2022-10-17T13:07:43;101444.59;;;19.80;94.71
13013;BME280;22580;57.670;12.006;2022-10-17T13:10:21;101447.63;;;19.40;95.26
13013;BME280;22580;57.670;12.006;2022-10-17T13:12:50;101436.22;;;19.37;95.54